createdAt,value
2018-01-23T00:00:08.076Z,2.90
2018-01-23T00:02:37.121Z,2.80
2018-01-23T00:05:07.201Z,2.80
2018-01-23T00:07:42.237Z,2.80
2018-01-23T00:10:19.954Z,2.80
2018-01-23T00:12:52.842Z,2.80
2018-01-23T00:15:20.949Z,2.80
2018-01-23T00:17:55.662Z,2.80
2018-01-23T00:20:24.716Z,2.90
2018-01-23T00:22:53.797Z,2.90
2018-01-23T00:25:22.830Z,2.90
2018-01-23T00:27:57.474Z,2.80
2018-01-23T00:30:29.505Z,2.80
2018-01-23T00:32:58.539Z,2.80
2018-01-23T00:35:29.995Z,2.80
2018-01-23T00:37:58.989Z,2.80
2018-01-23T00:40:32.501Z,2.80
2018-01-23T00:43:17.637Z,2.90
2018-01-23T00:48:50.331Z,2.80
2018-01-23T00:51:18.436Z,2.90
2018-01-23T00:54:00.068Z,2.90
2018-01-23T00:56:29.631Z,2.90
2018-01-23T00:59:01.186Z,2.90
2018-01-23T01:01:30.183Z,2.80
2018-01-23T01:03:59.189Z,2.80
2018-01-23T01:06:29.220Z,2.80
2018-01-23T01:09:02.121Z,2.70
2018-01-23T01:11:32.186Z,2.70
2018-01-23T01:14:00.281Z,2.80
2018-01-23T01:16:28.382Z,2.70
2018-01-23T01:19:04.574Z,2.70
2018-01-23T01:21:36.632Z,2.70
2018-01-23T01:24:26.033Z,2.70
2018-01-23T01:26:56.093Z,2.70
2018-01-23T01:29:25.201Z,2.70
2018-01-23T01:31:54.325Z,2.70
2018-01-23T01:34:22.421Z,2.70
2018-01-23T01:36:51.490Z,2.70
2018-01-23T01:39:25.518Z,2.70
2018-01-23T01:41:53.615Z,2.70
2018-01-23T01:44:21.724Z,2.70
2018-01-23T01:46:57.314Z,2.70
2018-01-23T01:49:27.177Z,2.70
2018-01-23T01:51:59.057Z,2.70
2018-01-23T01:54:38.444Z,2.70
2018-01-23T01:57:07.517Z,2.70
2018-01-23T02:02:36.446Z,2.70
2018-01-23T02:05:08.325Z,2.70
2018-01-23T02:07:38.356Z,2.70
2018-01-23T02:10:08.369Z,2.70
2018-01-23T02:12:36.513Z,2.70
2018-01-23T02:15:06.360Z,2.70
2018-01-23T02:20:34.835Z,2.70
2018-01-23T02:23:22.608Z,2.70
2018-01-23T02:25:51.468Z,2.70
2018-01-23T02:28:19.599Z,2.70
2018-01-23T02:33:51.026Z,2.70
2018-01-23T02:36:26.661Z,2.60
2018-01-23T02:38:55.532Z,2.70
2018-01-23T02:41:25.621Z,2.70
2018-01-23T02:44:00.370Z,2.70
2018-01-23T02:46:28.464Z,2.70
2018-01-23T02:48:56.600Z,2.70
2018-01-23T02:51:25.648Z,2.70
2018-01-23T02:56:55.732Z,2.60
2018-01-23T02:59:23.838Z,2.60
2018-01-23T03:01:52.893Z,2.50
2018-01-23T03:04:21.012Z,2.50
2018-01-23T03:06:56.136Z,2.50
2018-01-23T03:09:42.588Z,2.50
2018-01-23T03:12:12.670Z,2.60
2018-01-23T03:14:41.692Z,2.60
2018-01-23T03:17:14.368Z,2.60
2018-01-23T03:19:42.489Z,2.60
2018-01-23T03:22:10.584Z,2.60
2018-01-23T03:24:39.684Z,2.60
2018-01-23T03:27:24.587Z,2.60
2018-01-23T03:32:59.577Z,2.60
2018-01-23T03:35:34.648Z,2.60
2018-01-23T03:38:08.172Z,2.60
2018-01-23T03:40:36.273Z,2.60
2018-01-23T03:43:05.368Z,2.70
2018-01-23T03:45:33.476Z,2.60
2018-01-23T03:50:55.397Z,2.60
2018-01-23T03:53:23.484Z,2.70
2018-01-23T03:55:55.690Z,2.60
2018-01-23T03:58:27.357Z,2.60
2018-01-23T04:00:57.427Z,2.60
2018-01-23T04:03:26.835Z,2.70
2018-01-23T04:05:59.692Z,2.60
2018-01-23T04:08:28.529Z,2.70
2018-01-23T04:10:56.674Z,2.70
2018-01-23T04:13:25.689Z,2.70
2018-01-23T04:15:54.797Z,2.70
2018-01-23T04:18:22.893Z,2.60
2018-01-23T04:20:56.097Z,2.60
2018-01-23T04:23:25.206Z,2.70
2018-01-23T04:26:01.253Z,2.70
2018-01-23T04:28:37.939Z,2.70
2018-01-23T04:31:06.955Z,2.70
2018-01-23T04:33:36.984Z,2.70
2018-01-23T04:36:07.009Z,2.70
2018-01-23T04:38:37.079Z,2.70
2018-01-23T04:41:28.431Z,2.70
2018-01-23T04:44:02.565Z,2.70
2018-01-23T04:46:30.694Z,2.70
2018-01-23T04:48:59.782Z,2.70
2018-01-23T04:51:28.785Z,2.70
2018-01-23T04:53:57.081Z,2.80
2018-01-23T04:56:25.264Z,2.70
2018-01-23T04:58:57.440Z,2.80
2018-01-23T05:01:25.547Z,2.80
2018-01-23T05:03:53.635Z,2.80
2018-01-23T05:06:22.760Z,2.80
2018-01-23T05:08:50.943Z,2.80
2018-01-23T05:11:24.342Z,2.80
2018-01-23T05:13:55.943Z,2.80
2018-01-23T05:16:24.988Z,2.80
2018-01-23T05:18:58.295Z,2.90
2018-01-23T05:21:45.842Z,2.90
2018-01-23T05:24:13.953Z,2.90
2018-01-23T05:26:42.041Z,2.90
2018-01-23T05:29:17.748Z,2.80
2018-01-23T05:31:49.726Z,2.80
2018-01-23T05:34:19.414Z,2.80
2018-01-23T05:36:47.905Z,2.80
2018-01-23T05:39:16.001Z,2.80
2018-01-23T05:41:58.093Z,2.80
2018-01-23T05:44:31.380Z,2.90
2018-01-23T05:50:01.469Z,2.90
2018-01-23T05:52:30.545Z,2.90
2018-01-23T05:55:09.441Z,2.90
2018-01-23T05:57:40.229Z,2.90
2018-01-23T06:00:08.683Z,2.90
2018-01-23T06:02:39.489Z,3.00
2018-01-23T06:05:08.576Z,3.00
2018-01-23T06:07:36.720Z,3.00
2018-01-23T06:10:19.000Z,3.00
2018-01-23T06:12:50.064Z,3.00
2018-01-23T06:15:18.183Z,3.10
2018-01-23T06:17:46.300Z,3.10
2018-01-23T06:20:15.398Z,3.10
2018-01-23T06:22:44.430Z,3.10
2018-01-23T06:25:20.650Z,3.10
2018-01-23T06:27:49.581Z,3.10
2018-01-23T06:30:23.216Z,3.10
2018-01-23T06:32:52.358Z,3.20
2018-01-23T06:35:27.359Z,3.20
2018-01-23T06:37:57.435Z,3.20
2018-01-23T06:40:31.840Z,3.20
2018-01-23T06:43:01.846Z,3.20
2018-01-23T06:45:30.882Z,3.10
2018-01-23T06:48:00.885Z,3.10
2018-01-23T06:50:29.078Z,3.10
2018-01-23T06:52:57.221Z,3.10
2018-01-23T06:55:26.336Z,3.20
2018-01-23T06:57:54.442Z,3.20
2018-01-23T07:00:22.612Z,3.20
2018-01-23T07:02:50.752Z,3.20
2018-01-23T07:05:18.865Z,3.30
2018-01-23T07:07:47.946Z,3.30
2018-01-23T07:10:17.775Z,3.30
2018-01-23T07:12:45.962Z,3.30
2018-01-23T07:15:14.129Z,3.40
2018-01-23T07:17:42.246Z,3.40
2018-01-23T07:20:12.147Z,3.50
2018-01-23T07:22:40.249Z,3.50
2018-01-23T07:25:09.065Z,3.60
2018-01-23T07:27:38.955Z,3.60
2018-01-23T07:30:08.968Z,3.60
2018-01-23T07:32:37.090Z,3.60
2018-01-23T07:35:05.185Z,3.60
2018-01-23T07:37:37.819Z,3.70
2018-01-23T07:40:06.046Z,3.70
2018-01-23T07:42:34.195Z,3.80
2018-01-23T07:45:02.336Z,3.80
2018-01-23T07:47:31.523Z,3.80
2018-01-23T07:50:01.061Z,3.80
2018-01-23T07:52:31.185Z,3.80
2018-01-23T07:55:01.264Z,3.90
2018-01-23T07:57:29.382Z,3.90
2018-01-23T08:00:10.210Z,4.00
2018-01-23T08:02:38.342Z,4.20
2018-01-23T08:05:08.533Z,4.20
2018-01-23T08:07:40.370Z,4.20
2018-01-23T08:10:08.476Z,4.30
2018-01-23T08:12:36.618Z,4.30
2018-01-23T08:15:05.696Z,4.40
2018-01-23T08:17:34.118Z,4.50
2018-01-23T08:20:04.235Z,4.60
2018-01-23T08:22:33.419Z,4.60
2018-01-23T08:25:02.641Z,4.70
2018-01-23T08:27:30.834Z,4.80
2018-01-23T08:29:59.887Z,4.80
2018-01-23T08:32:31.056Z,4.90
2018-01-23T08:34:59.942Z,5.00
2018-01-23T08:37:28.855Z,5.00
2018-01-23T08:40:05.105Z,5.00
2018-01-23T08:42:34.290Z,5.00
2018-01-23T08:45:06.158Z,5.10
2018-01-23T08:47:34.853Z,5.10
2018-01-23T08:50:03.881Z,5.10
2018-01-23T08:52:31.997Z,5.20
2018-01-23T08:55:01.886Z,5.20
2018-01-23T08:57:30.061Z,5.20
2018-01-23T08:59:58.218Z,5.30
2018-01-23T09:02:26.325Z,5.30
2018-01-23T09:04:55.512Z,5.40
2018-01-23T09:07:23.670Z,5.50
2018-01-23T09:09:57.799Z,5.60
2018-01-23T09:12:28.631Z,5.70
2018-01-23T09:14:57.538Z,5.90
2018-01-23T09:17:25.639Z,5.90
2018-01-23T09:19:53.844Z,6.00
2018-01-23T09:22:21.957Z,6.00
2018-01-23T09:24:50.956Z,6.20
2018-01-23T09:27:19.126Z,6.30
2018-01-23T09:29:48.261Z,6.40
2018-01-23T09:32:19.409Z,6.50
2018-01-23T09:34:48.600Z,6.50
2018-01-23T09:37:17.642Z,6.60
2018-01-23T09:39:45.769Z,6.50
2018-01-23T09:42:16.570Z,6.70
2018-01-23T09:44:46.637Z,6.70
2018-01-23T09:47:16.758Z,6.70
2018-01-23T09:49:49.336Z,6.60
2018-01-23T09:52:22.922Z,6.60
2018-01-23T09:54:51.237Z,6.70
2018-01-23T09:57:19.377Z,6.80
2018-01-23T09:59:47.536Z,6.80
2018-01-23T10:02:17.517Z,7.00
2018-01-23T10:04:47.564Z,6.90
2018-01-23T10:07:18.804Z,7.00
2018-01-23T10:09:47.770Z,7.00
2018-01-23T10:12:22.115Z,7.10
2018-01-23T10:14:51.413Z,7.10
2018-01-23T10:17:24.072Z,6.90
2018-01-23T10:19:52.189Z,6.90
2018-01-23T10:22:20.305Z,6.90
2018-01-23T10:24:48.415Z,7.10
2018-01-23T10:27:18.517Z,7.20
2018-01-23T10:29:46.850Z,7.10
2018-01-23T10:32:15.944Z,7.10
2018-01-23T10:34:46.040Z,7.10
2018-01-23T10:37:14.248Z,7.10
2018-01-23T10:39:42.438Z,7.20
2018-01-23T10:42:11.456Z,7.20
2018-01-23T10:44:44.082Z,7.30
2018-01-23T10:47:14.129Z,7.30
2018-01-23T10:49:45.126Z,7.20
2018-01-23T10:52:13.243Z,7.20
2018-01-23T10:54:41.341Z,7.20
2018-01-23T10:57:09.494Z,7.30
2018-01-23T10:59:37.638Z,7.40
2018-01-23T11:02:10.621Z,7.40
2018-01-23T11:04:39.692Z,7.40
2018-01-23T11:07:07.808Z,7.50
2018-01-23T11:09:36.682Z,7.50
2018-01-23T11:12:05.730Z,7.40
2018-01-23T11:14:35.820Z,7.40
2018-01-23T11:17:04.721Z,7.50
2018-01-23T11:19:35.527Z,7.50
2018-01-23T11:22:03.712Z,7.50
2018-01-23T11:24:31.882Z,7.50
2018-01-23T11:27:01.944Z,7.50
2018-01-23T11:29:30.064Z,7.40
2018-01-23T11:31:58.282Z,7.40
2018-01-23T11:34:26.394Z,7.40
2018-01-23T11:36:59.201Z,7.60
2018-01-23T11:39:27.436Z,7.70
2018-01-23T11:41:56.205Z,7.70
2018-01-23T11:44:27.341Z,7.80
2018-01-23T11:46:55.630Z,7.80
2018-01-23T11:49:23.769Z,7.70
2018-01-23T11:51:51.900Z,7.80
2018-01-23T11:54:20.050Z,7.80
2018-01-23T11:56:48.269Z,7.80
2018-01-23T11:59:16.439Z,7.80
2018-01-23T12:01:44.796Z,7.90
2018-01-23T12:04:14.834Z,8.10
2018-01-23T12:06:42.945Z,8.00
2018-01-23T12:09:13.337Z,8.00
2018-01-23T12:11:42.473Z,8.10
2018-01-23T12:14:14.057Z,8.10
2018-01-23T12:16:42.887Z,8.10
2018-01-23T12:19:11.014Z,8.20
2018-01-23T12:21:43.213Z,8.30
2018-01-23T12:24:12.305Z,8.30
2018-01-23T12:26:40.445Z,8.30
2018-01-23T12:29:09.492Z,8.30
2018-01-23T12:31:39.884Z,8.30
2018-01-23T12:34:08.457Z,8.30
2018-01-23T12:36:40.881Z,8.20
2018-01-23T12:39:09.989Z,8.30
2018-01-23T12:41:42.165Z,8.40
2018-01-23T12:44:11.208Z,8.40
2018-01-23T12:46:42.340Z,8.40
2018-01-23T12:49:13.874Z,8.30
2018-01-23T12:51:42.043Z,8.30
2018-01-23T12:54:13.058Z,8.20
2018-01-23T12:56:43.143Z,8.20
2018-01-23T12:59:12.282Z,8.10
2018-01-23T13:01:42.134Z,8.10
2018-01-23T13:04:10.319Z,8.10
2018-01-23T13:06:40.377Z,8.10
2018-01-23T13:09:10.467Z,8.20
2018-01-23T13:11:38.602Z,8.20
2018-01-23T13:14:06.686Z,8.30
2018-01-23T13:16:35.831Z,8.30
2018-01-23T13:19:04.809Z,8.20
2018-01-23T13:21:35.050Z,8.20
2018-01-23T13:24:03.174Z,8.10
2018-01-23T13:26:41.813Z,8.10
2018-01-23T13:29:11.857Z,8.10
2018-01-23T13:31:39.965Z,8.00
2018-01-23T13:34:08.146Z,7.90
2018-01-23T13:36:37.259Z,8.00
2018-01-23T13:39:05.396Z,7.90
2018-01-23T13:41:54.070Z,7.90
2018-01-23T13:44:22.148Z,8.00
2018-01-23T13:46:52.236Z,8.00
2018-01-23T13:49:24.207Z,8.00
2018-01-23T13:51:52.320Z,8.00
2018-01-23T13:54:20.449Z,8.00
2018-01-23T13:56:49.714Z,8.00
2018-01-23T13:59:19.497Z,8.00
2018-01-23T14:01:48.610Z,8.00
2018-01-23T14:04:16.737Z,8.00
2018-01-23T14:09:48.493Z,8.10
2018-01-23T14:12:21.992Z,8.00
2018-01-23T14:14:50.164Z,8.00
2018-01-23T14:17:18.401Z,8.00
2018-01-23T14:19:57.577Z,8.00
2018-01-23T14:22:29.617Z,8.00
2018-01-23T14:24:57.716Z,7.90
2018-01-23T14:27:25.884Z,7.90
2018-01-23T14:29:54.979Z,7.90
2018-01-23T14:32:27.460Z,7.90
2018-01-23T14:34:55.614Z,7.90
2018-01-23T14:37:34.126Z,7.90
2018-01-23T14:40:03.905Z,7.80
2018-01-23T14:42:32.017Z,7.70
2018-01-23T14:45:02.854Z,7.80
2018-01-23T14:47:31.926Z,7.70
2018-01-23T14:50:03.209Z,7.80
2018-01-23T14:52:31.288Z,7.80
2018-01-23T14:55:00.361Z,7.80
2018-01-23T14:57:32.436Z,7.80
2018-01-23T15:00:11.828Z,7.70
2018-01-23T15:02:39.942Z,7.70
2018-01-23T15:05:09.125Z,7.70
2018-01-23T15:07:39.217Z,7.70
2018-01-23T15:10:09.797Z,7.70
2018-01-23T15:12:46.113Z,7.70
2018-01-23T15:15:14.853Z,7.60
2018-01-23T15:17:49.681Z,7.60
2018-01-23T15:20:17.975Z,7.60
2018-01-23T15:22:46.099Z,7.60
2018-01-23T15:25:15.091Z,7.50
2018-01-23T15:27:53.270Z,7.50
2018-01-23T15:30:31.682Z,7.50
2018-01-23T15:32:59.837Z,7.50
2018-01-23T15:35:28.854Z,7.50
2018-01-23T15:37:57.363Z,7.50
2018-01-23T15:40:25.448Z,7.50
2018-01-23T15:42:54.488Z,7.40
2018-01-23T15:45:24.581Z,7.50
2018-01-23T15:47:57.810Z,7.40
2018-01-23T15:50:26.957Z,7.40
2018-01-23T15:52:55.084Z,7.40
2018-01-23T15:55:24.991Z,7.40
2018-01-23T15:57:54.077Z,7.30
2018-01-23T16:00:25.296Z,7.30
2018-01-23T16:02:53.543Z,7.30
2018-01-23T16:05:26.773Z,7.30
2018-01-23T16:07:56.154Z,7.30
2018-01-23T16:10:28.381Z,7.30
2018-01-23T16:12:56.647Z,7.30
2018-01-23T16:15:25.774Z,7.30
2018-01-23T16:17:54.183Z,7.20
2018-01-23T16:20:26.357Z,7.20
2018-01-23T16:22:54.510Z,7.20
2018-01-23T16:25:28.196Z,7.20
2018-01-23T16:27:56.771Z,7.20
2018-01-23T16:30:25.881Z,7.20
2018-01-23T16:32:58.589Z,7.20
2018-01-23T16:35:26.705Z,7.20
2018-01-23T16:37:54.834Z,7.20
2018-01-23T16:40:22.983Z,7.20
2018-01-23T16:42:51.103Z,7.10
2018-01-23T16:45:20.246Z,7.10
2018-01-23T16:47:48.419Z,7.10
2018-01-23T16:50:16.907Z,7.10
2018-01-23T16:52:51.409Z,7.10
2018-01-23T16:55:23.382Z,7.00
2018-01-23T16:57:51.552Z,7.00
2018-01-23T17:00:20.910Z,7.10
2018-01-23T17:02:52.481Z,7.10
2018-01-23T17:05:22.644Z,7.10
2018-01-23T17:07:52.790Z,7.10
2018-01-23T17:10:21.845Z,7.10
2018-01-23T17:12:50.000Z,7.00
2018-01-23T17:15:18.318Z,7.00
2018-01-23T17:17:49.862Z,7.00
2018-01-23T17:20:18.046Z,7.00
2018-01-23T17:22:51.946Z,7.00
2018-01-23T17:25:21.032Z,7.00
2018-01-23T17:27:50.361Z,7.00
2018-01-23T17:30:24.450Z,7.00
2018-01-23T17:32:57.230Z,7.00
2018-01-23T17:35:26.399Z,6.90
2018-01-23T17:37:54.654Z,6.90
2018-01-23T17:40:28.220Z,6.80
2018-01-23T17:42:58.243Z,6.80
2018-01-23T17:45:26.350Z,6.80
2018-01-23T17:47:55.465Z,6.70
2018-01-23T17:50:23.564Z,6.70
2018-01-23T17:52:54.397Z,6.60
2018-01-23T17:55:24.939Z,6.60
2018-01-23T17:58:04.771Z,6.60
2018-01-23T18:00:36.065Z,6.60
2018-01-23T18:03:17.892Z,6.60
2018-01-23T18:05:53.695Z,6.50
2018-01-23T18:08:21.822Z,6.60
2018-01-23T18:10:49.972Z,6.50
2018-01-23T18:13:30.212Z,6.50
2018-01-23T18:15:58.540Z,6.50
2018-01-23T18:18:38.442Z,6.50
2018-01-23T18:21:11.762Z,6.50
2018-01-23T18:23:40.959Z,6.50
2018-01-23T18:26:10.506Z,6.50
2018-01-23T18:28:38.918Z,6.50
2018-01-23T18:31:07.983Z,6.50
2018-01-23T18:33:52.673Z,6.40
2018-01-23T18:36:20.820Z,6.40
2018-01-23T18:38:53.853Z,6.40
2018-01-23T18:41:27.956Z,6.40
2018-01-23T18:44:03.481Z,6.40
2018-01-23T18:46:34.865Z,6.30
2018-01-23T18:49:04.135Z,6.30
2018-01-23T18:51:32.742Z,6.30
2018-01-23T18:54:06.573Z,6.30
2018-01-23T18:56:35.221Z,6.30
2018-01-23T18:59:08.965Z,6.30
2018-01-23T19:01:40.154Z,6.30
2018-01-23T19:04:11.330Z,6.30
2018-01-23T19:06:41.377Z,6.30
2018-01-23T19:09:12.108Z,6.30
2018-01-23T19:11:41.170Z,6.30
2018-01-23T19:14:17.822Z,6.30
2018-01-23T19:16:50.893Z,6.20
2018-01-23T19:19:30.839Z,6.20
2018-01-23T19:21:59.386Z,6.20
2018-01-23T19:24:31.867Z,6.20
2018-01-23T19:27:15.181Z,6.30
2018-01-23T19:29:45.062Z,6.20
2018-01-23T19:32:13.161Z,6.20
2018-01-23T19:34:48.005Z,6.20
2018-01-23T19:37:16.483Z,6.20
2018-01-23T19:39:44.579Z,6.20
2018-01-23T19:42:13.998Z,6.20
2018-01-23T19:44:51.812Z,6.20
2018-01-23T19:47:20.282Z,6.20
2018-01-23T19:49:49.841Z,6.20
2018-01-23T19:52:19.993Z,6.30
2018-01-23T19:54:51.976Z,6.30
2018-01-23T19:57:25.433Z,6.40
2018-01-23T19:59:54.527Z,6.40
2018-01-23T20:02:22.652Z,6.40
2018-01-23T20:04:51.614Z,6.50
2018-01-23T20:07:24.413Z,6.50
2018-01-23T20:10:01.175Z,6.50
2018-01-23T20:12:36.321Z,6.50
2018-01-23T20:15:15.583Z,6.50
2018-01-23T20:17:45.629Z,6.50
2018-01-23T20:20:15.728Z,6.50
2018-01-23T20:22:43.860Z,6.50
2018-01-23T20:25:17.880Z,6.50
2018-01-23T20:27:47.222Z,6.40
2018-01-23T20:30:15.349Z,6.40
2018-01-23T20:32:49.289Z,6.40
2018-01-23T20:35:18.326Z,6.40
2018-01-23T20:37:47.389Z,6.40
2018-01-23T20:40:16.516Z,6.40
2018-01-23T20:42:44.631Z,6.40
2018-01-23T20:45:15.181Z,6.50
2018-01-23T20:47:43.273Z,6.40
2018-01-23T20:50:12.311Z,6.50
2018-01-23T20:52:40.470Z,6.50
2018-01-23T20:55:10.328Z,6.60
2018-01-23T20:57:38.433Z,6.60
2018-01-23T21:00:12.405Z,6.60
2018-01-23T21:02:40.885Z,6.60
2018-01-23T21:05:10.971Z,6.70
2018-01-23T21:07:40.082Z,6.70
2018-01-23T21:10:08.245Z,6.70
2018-01-23T21:12:40.101Z,6.80
2018-01-23T21:15:09.107Z,6.80
2018-01-23T21:17:49.045Z,6.80
2018-01-23T21:20:21.157Z,6.90
2018-01-23T21:23:01.322Z,6.90
2018-01-23T21:25:45.854Z,6.90
2018-01-23T21:28:20.560Z,7.00
2018-01-23T21:30:48.767Z,7.00
2018-01-23T21:33:18.881Z,7.00
2018-01-23T21:35:52.660Z,7.00
2018-01-23T21:38:21.732Z,6.90
2018-01-23T21:40:51.617Z,6.90
2018-01-23T21:43:20.723Z,6.90
2018-01-23T21:45:48.832Z,6.90
2018-01-23T21:48:17.041Z,6.90
2018-01-23T21:50:45.162Z,6.90
2018-01-23T21:53:13.270Z,6.90
2018-01-23T21:55:41.497Z,6.90
2018-01-23T21:58:09.616Z,6.90
2018-01-23T22:00:43.260Z,7.00
2018-01-23T22:03:14.688Z,6.90
2018-01-23T22:05:42.818Z,7.00
2018-01-23T22:08:12.063Z,7.00
2018-01-23T22:10:40.204Z,7.10
2018-01-23T22:13:13.449Z,7.10
2018-01-23T22:15:42.350Z,7.10
2018-01-23T22:18:15.661Z,7.20
2018-01-23T22:20:48.928Z,7.10
2018-01-23T22:23:22.098Z,7.20
2018-01-23T22:25:53.757Z,7.20
2018-01-23T22:28:28.216Z,7.30
2018-01-23T22:30:57.948Z,7.30
2018-01-23T22:33:29.851Z,7.30
2018-01-23T22:39:09.754Z,7.30
2018-01-23T22:41:43.561Z,7.30
2018-01-23T22:44:12.038Z,7.30
2018-01-23T22:46:40.162Z,7.30
2018-01-23T22:49:09.192Z,7.30
2018-01-23T22:51:38.368Z,7.40
2018-01-23T22:54:10.189Z,7.40
2018-01-23T22:56:49.392Z,7.40
2018-01-23T22:59:21.428Z,7.40
2018-01-23T23:01:50.542Z,7.40
2018-01-23T23:04:19.606Z,7.40
2018-01-23T23:06:49.662Z,7.50
2018-01-23T23:09:19.769Z,7.50
2018-01-23T23:11:49.820Z,7.50
2018-01-23T23:14:42.449Z,7.60
2018-01-23T23:17:18.816Z,7.60
2018-01-23T23:19:50.714Z,7.60
2018-01-23T23:22:19.771Z,7.60
2018-01-23T23:25:01.037Z,7.70
2018-01-23T23:27:29.168Z,7.70
2018-01-23T23:29:58.961Z,7.80
2018-01-23T23:32:30.712Z,7.80
2018-01-23T23:35:16.825Z,7.80
2018-01-23T23:37:55.608Z,7.80
2018-01-23T23:40:23.711Z,7.90
2018-01-23T23:42:56.445Z,7.90
2018-01-23T23:45:24.550Z,8.00
2018-01-23T23:47:58.600Z,8.00
2018-01-23T23:50:34.372Z,8.00
2018-01-23T23:53:15.001Z,8.00
2018-01-23T23:55:43.198Z,8.10
2018-01-23T23:58:11.307Z,8.10
